createdAt,value
2023-03-22T00:01:15.869Z,12.20
2023-03-22T00:03:44.593Z,11.90
2023-03-22T00:06:16.883Z,12.00
2023-03-22T00:08:48.645Z,12.20
2023-03-22T00:11:24.396Z,11.50
2023-03-22T00:13:53.875Z,11.90
2023-03-22T00:16:22.392Z,11.80
2023-03-22T00:18:59.809Z,11.80
2023-03-22T00:21:29.669Z,11.60
2023-03-22T00:23:58.306Z,11.00
2023-03-22T00:26:26.615Z,11.50
2023-03-22T00:28:54.865Z,11.30
2023-03-22T00:31:23.310Z,10.80
2023-03-22T00:33:52.653Z,11.30
2023-03-22T00:36:21.140Z,11.40
2023-03-22T00:38:52.575Z,11.80
2023-03-22T00:41:22.708Z,11.50
2023-03-22T00:43:56.755Z,10.60
2023-03-22T00:46:25.364Z,10.90
2023-03-22T00:48:53.757Z,11.10
2023-03-22T00:51:24.568Z,11.60
2023-03-22T00:53:54.273Z,10.40
2023-03-22T00:56:25.669Z,10.60
2023-03-22T00:59:14.507Z,10.20
2023-03-22T01:01:47.023Z,10.20
2023-03-22T01:04:18.316Z,10.20
2023-03-22T01:06:47.400Z,11.40
2023-03-22T01:09:16.094Z,10.80
2023-03-22T01:11:45.881Z,11.80
2023-03-22T01:14:14.516Z,10.20
2023-03-22T01:16:43.351Z,10.40
2023-03-22T01:19:11.720Z,10.60
2023-03-22T01:21:40.555Z,10.40
2023-03-22T01:24:08.881Z,10.20
2023-03-22T01:26:39.005Z,10.10
2023-03-22T01:29:07.462Z,10.40
2023-03-22T01:31:35.903Z,9.40
2023-03-22T01:34:04.635Z,9.50
2023-03-22T01:36:33.683Z,9.60
2023-03-22T01:39:02.241Z,9.20
2023-03-22T01:41:35.287Z,9.80
2023-03-22T01:44:18.259Z,10.60
2023-03-22T01:46:48.431Z,10.20
2023-03-22T01:49:31.661Z,10.40
2023-03-22T01:52:04.577Z,10.40
2023-03-22T01:55:02.576Z,9.50
2023-03-22T01:57:42.186Z,10.20
2023-03-22T02:00:16.040Z,10.40
2023-03-22T02:03:04.516Z,10.30
2023-03-22T02:05:37.626Z,10.40
2023-03-22T02:08:09.461Z,10.70
2023-03-22T02:11:01.784Z,10.10
2023-03-22T02:13:34.493Z,10.30
2023-03-22T02:16:35.456Z,10.50
2023-03-22T02:19:15.781Z,10.10
2023-03-22T02:22:02.130Z,10.60
2023-03-22T02:24:49.751Z,10.70
2023-03-22T02:27:31.932Z,10.70
2023-03-22T02:30:10.810Z,10.10
2023-03-22T02:32:48.509Z,10.70
2023-03-22T02:35:26.259Z,11.20
2023-03-22T02:37:57.820Z,11.10
2023-03-22T02:40:48.239Z,10.90
2023-03-22T02:43:31.113Z,11.60
2023-03-22T02:46:10.036Z,11.20
2023-03-22T02:48:49.199Z,11.10
2023-03-22T02:51:27.355Z,10.80
2023-03-22T02:53:58.124Z,11.00
2023-03-22T02:56:31.802Z,12.30
2023-03-22T02:59:03.508Z,13.20
2023-03-22T03:01:38.830Z,11.10
2023-03-22T03:04:09.820Z,11.40
2023-03-22T03:06:40.988Z,11.30
2023-03-22T03:09:09.650Z,12.00
2023-03-22T03:11:38.785Z,11.60
2023-03-22T03:14:07.361Z,12.50
2023-03-22T03:16:36.857Z,12.10
2023-03-22T03:19:20.696Z,11.50
2023-03-22T03:22:00.792Z,11.40
2023-03-22T03:24:32.764Z,10.50
2023-03-22T03:27:24.434Z,10.80
2023-03-22T03:30:02.486Z,10.80
2023-03-22T03:32:35.791Z,12.10
2023-03-22T03:35:22.569Z,11.80
2023-03-22T03:37:59.357Z,11.30
2023-03-22T03:40:31.332Z,11.00
2023-03-22T03:43:02.924Z,11.40
2023-03-22T03:45:33.037Z,11.80
2023-03-22T03:48:05.124Z,11.90
2023-03-22T03:50:33.678Z,11.80
2023-03-22T03:53:02.435Z,12.10
2023-03-22T03:55:31.108Z,12.20
2023-03-22T03:57:59.616Z,12.50
2023-03-22T04:00:28.110Z,12.90
2023-03-22T04:03:19.344Z,11.70
2023-03-22T04:06:04.055Z,11.90
2023-03-22T04:08:35.482Z,11.30
2023-03-22T04:11:05.522Z,11.40
2023-03-22T04:13:35.881Z,12.60
2023-03-22T04:16:07.541Z,12.80
2023-03-22T04:18:38.611Z,12.60
2023-03-22T04:21:08.990Z,12.40
2023-03-22T04:23:46.952Z,12.50
2023-03-22T04:26:16.092Z,11.70
2023-03-22T04:29:04.787Z,12.30
2023-03-22T04:31:35.891Z,12.60
2023-03-22T04:34:18.687Z,12.70
2023-03-22T04:37:03.965Z,12.60
2023-03-22T04:42:20.054Z,11.70
2023-03-22T04:44:49.074Z,12.30
2023-03-22T04:47:18.256Z,14.00
2023-03-22T04:49:50.549Z,12.60
2023-03-22T04:52:19.183Z,12.90
2023-03-22T04:54:54.067Z,11.50
2023-03-22T04:57:22.901Z,12.40
2023-03-22T04:59:53.749Z,11.70
2023-03-22T05:02:22.989Z,11.30
2023-03-22T05:04:51.636Z,12.80
2023-03-22T05:07:36.861Z,12.20
2023-03-22T05:10:07.830Z,12.60
2023-03-22T05:12:36.210Z,12.90
2023-03-22T05:15:21.112Z,13.10
2023-03-22T05:17:52.999Z,13.20
2023-03-22T05:20:21.371Z,14.10
2023-03-22T05:22:58.200Z,13.50
2023-03-22T05:25:27.582Z,13.20
2023-03-22T05:28:02.036Z,13.60
2023-03-22T05:30:52.247Z,13.90
2023-03-22T05:33:35.006Z,13.00
2023-03-22T05:36:04.247Z,13.10
2023-03-22T05:38:35.595Z,13.90
2023-03-22T05:41:05.463Z,13.50
2023-03-22T05:43:34.357Z,13.50
2023-03-22T05:46:08.880Z,14.40
2023-03-22T05:48:51.419Z,14.10
2023-03-22T05:51:20.057Z,13.10
2023-03-22T05:53:53.673Z,13.80
2023-03-22T05:56:29.772Z,12.40
2023-03-22T05:59:12.314Z,11.80
2023-03-22T06:01:43.677Z,12.50
2023-03-22T06:04:21.299Z,11.90
2023-03-22T06:07:07.344Z,11.70
2023-03-22T06:10:07.130Z,11.60
2023-03-22T06:12:38.094Z,11.20
2023-03-22T06:15:12.751Z,11.30
2023-03-22T06:18:00.170Z,11.00
2023-03-22T06:20:32.015Z,11.30
2023-03-22T06:23:04.591Z,12.30
2023-03-22T06:25:33.695Z,12.30
2023-03-22T06:28:03.006Z,12.30
2023-03-22T06:30:31.855Z,11.20
2023-03-22T06:33:21.740Z,11.20
2023-03-22T06:35:55.980Z,11.60
2023-03-22T06:38:32.474Z,11.30
2023-03-22T06:41:00.846Z,11.70
2023-03-22T06:43:30.232Z,10.60
2023-03-22T06:46:11.870Z,11.70
2023-03-22T06:48:48.244Z,11.20
2023-03-22T06:51:19.571Z,11.10
2023-03-22T06:53:48.568Z,11.00
2023-03-22T06:56:17.124Z,10.60
2023-03-22T06:58:51.976Z,11.40
2023-03-22T07:01:24.125Z,11.10
2023-03-22T07:03:55.369Z,11.00
2023-03-22T07:06:25.212Z,11.40
2023-03-22T07:08:53.837Z,11.60
2023-03-22T07:11:26.948Z,11.60
2023-03-22T07:14:00.288Z,10.60
2023-03-22T07:16:35.813Z,11.40
2023-03-22T07:19:09.342Z,11.50
2023-03-22T07:21:38.155Z,11.30
2023-03-22T07:24:09.356Z,11.20
2023-03-22T07:26:39.362Z,11.00
2023-03-22T07:29:08.958Z,11.20
2023-03-22T07:31:38.192Z,10.70
2023-03-22T07:34:27.635Z,11.00
2023-03-22T07:37:05.219Z,11.90
2023-03-22T07:39:35.015Z,12.00
2023-03-22T07:42:05.896Z,11.90
2023-03-22T07:44:57.400Z,11.50
2023-03-22T07:47:39.833Z,12.10
2023-03-22T07:50:24.462Z,11.40
2023-03-22T07:52:56.241Z,11.60
2023-03-22T07:55:24.685Z,11.00
2023-03-22T07:57:53.973Z,11.80
2023-03-22T08:00:23.448Z,11.60
2023-03-22T08:02:58.121Z,11.80
2023-03-22T08:05:44.651Z,11.50
2023-03-22T08:08:15.784Z,12.00
2023-03-22T08:10:50.855Z,8.90
2023-03-22T08:13:19.979Z,9.80
2023-03-22T08:15:48.556Z,9.20
2023-03-22T08:18:19.438Z,9.20
2023-03-22T08:20:59.673Z,8.80
2023-03-22T08:23:41.029Z,8.20
2023-03-22T08:26:39.905Z,7.90
2023-03-22T08:29:16.418Z,7.40
2023-03-22T08:31:48.210Z,7.80
2023-03-22T08:34:16.617Z,7.80
2023-03-22T08:36:46.581Z,7.80
2023-03-22T08:39:16.204Z,8.00
2023-03-22T08:42:09.221Z,7.40
2023-03-22T08:44:38.168Z,7.90
2023-03-22T08:47:06.783Z,7.80
2023-03-22T08:49:35.778Z,8.00
2023-03-22T08:52:09.550Z,8.10
2023-03-22T08:54:45.463Z,7.90
2023-03-22T08:57:50.478Z,6.80
2023-03-22T09:00:47.859Z,7.30
2023-03-22T09:03:25.142Z,7.80
2023-03-22T09:05:53.665Z,7.60
2023-03-22T09:08:23.350Z,7.30
2023-03-22T09:11:00.111Z,7.10
2023-03-22T09:13:31.571Z,6.90
2023-03-22T09:16:04.293Z,6.20
2023-03-22T09:18:36.342Z,6.50
2023-03-22T09:21:10.579Z,6.30
2023-03-22T09:23:50.595Z,6.70
2023-03-22T09:26:22.973Z,5.90
2023-03-22T09:28:52.338Z,6.30
2023-03-22T09:31:21.021Z,6.60
2023-03-22T09:33:55.291Z,7.30
2023-03-22T09:36:23.853Z,6.20
2023-03-22T09:38:53.141Z,7.30
2023-03-22T09:41:34.711Z,6.60
2023-03-22T09:44:05.712Z,6.40
2023-03-22T09:46:44.554Z,6.50
2023-03-22T09:49:19.927Z,6.80
2023-03-22T09:51:54.034Z,7.00
2023-03-22T09:54:35.403Z,6.70
2023-03-22T09:57:09.774Z,6.40
2023-03-22T09:59:44.703Z,5.40
2023-03-22T10:02:35.523Z,4.90
2023-03-22T10:05:15.796Z,5.10
2023-03-22T10:08:03.122Z,4.80
2023-03-22T10:10:31.814Z,5.30
2023-03-22T10:13:20.098Z,5.90
2023-03-22T10:15:52.575Z,4.90
2023-03-22T10:18:26.054Z,5.90
2023-03-22T10:21:04.892Z,4.90
2023-03-22T10:23:45.953Z,5.90
2023-03-22T10:26:22.974Z,5.50
2023-03-22T10:29:02.700Z,5.60
2023-03-22T10:31:32.407Z,4.70
2023-03-22T10:34:06.805Z,4.70
2023-03-22T10:36:37.440Z,4.80
2023-03-22T10:39:24.277Z,4.80
2023-03-22T10:41:55.363Z,4.60
2023-03-22T10:44:24.956Z,4.60
2023-03-22T10:47:00.453Z,4.50
2023-03-22T10:49:32.498Z,4.50
2023-03-22T10:52:39.766Z,4.60
2023-03-22T10:57:43.293Z,3.60
2023-03-22T11:00:15.585Z,3.70
2023-03-22T11:02:52.352Z,3.70
2023-03-22T11:05:28.766Z,3.50
2023-03-22T11:07:59.095Z,3.90
2023-03-22T11:10:32.873Z,3.50
2023-03-22T11:13:09.969Z,3.00
2023-03-22T11:15:42.467Z,3.50
2023-03-22T11:18:13.297Z,3.40
2023-03-22T11:21:11.321Z,3.00
2023-03-22T11:23:41.445Z,3.00
2023-03-22T11:26:12.242Z,3.90
2023-03-22T11:28:50.400Z,3.50
2023-03-22T11:31:20.017Z,3.30
2023-03-22T11:33:56.042Z,3.10
2023-03-22T11:36:24.703Z,2.90
2023-03-22T11:39:07.475Z,2.80
2023-03-22T11:41:36.999Z,2.80
2023-03-22T11:44:12.393Z,2.50
2023-03-22T11:47:00.033Z,2.50
2023-03-22T11:49:45.766Z,2.00
2023-03-22T11:52:23.625Z,2.70
2023-03-22T11:54:52.077Z,2.10
2023-03-22T11:57:25.454Z,2.40
2023-03-22T12:00:11.725Z,2.60
2023-03-22T12:02:50.064Z,2.50
2023-03-22T12:05:24.600Z,2.50
2023-03-22T12:08:12.118Z,2.70
2023-03-22T12:10:42.471Z,2.40
2023-03-22T12:13:30.845Z,2.60
2023-03-22T12:16:01.066Z,2.70
2023-03-22T12:18:51.449Z,2.30
2023-03-22T12:21:20.086Z,2.40
2023-03-22T12:23:48.742Z,2.10
2023-03-22T12:26:22.322Z,2.60
2023-03-22T12:28:59.560Z,2.60
2023-03-22T12:31:36.724Z,2.60
2023-03-22T12:34:07.485Z,2.40
2023-03-22T12:36:47.105Z,2.80
2023-03-22T12:39:41.367Z,2.40
2023-03-22T12:45:02.223Z,2.80
2023-03-22T12:47:38.618Z,3.00
2023-03-22T12:50:18.861Z,3.00
2023-03-22T12:52:54.886Z,3.00
2023-03-22T12:55:30.203Z,2.60
2023-03-22T12:58:06.463Z,2.60
2023-03-22T13:00:58.657Z,2.30
2023-03-22T13:03:30.023Z,2.30
2023-03-22T13:06:03.808Z,2.30
2023-03-22T13:09:02.428Z,2.20
2023-03-22T13:11:36.286Z,1.90
2023-03-22T13:14:04.828Z,2.10
2023-03-22T13:16:49.138Z,2.10
2023-03-22T13:19:28.886Z,2.60
2023-03-22T13:22:35.943Z,2.50
2023-03-22T13:25:23.812Z,2.10
2023-03-22T13:27:59.869Z,2.10
2023-03-22T13:30:50.711Z,2.10
2023-03-22T13:33:30.194Z,2.60
2023-03-22T13:36:07.641Z,2.30
2023-03-22T13:38:42.107Z,2.40
2023-03-22T13:41:21.349Z,2.30
2023-03-22T13:43:50.659Z,2.50
2023-03-22T13:46:22.387Z,2.80
2023-03-22T13:49:11.738Z,2.10
2023-03-22T13:51:40.109Z,2.60
2023-03-22T13:54:09.716Z,2.40
2023-03-22T13:56:42.603Z,3.00
2023-03-22T14:00:08.816Z,2.10
2023-03-22T14:03:06.253Z,2.00
2023-03-22T14:05:36.557Z,1.90
2023-03-22T14:08:05.397Z,1.90
2023-03-22T14:10:53.030Z,1.70
2023-03-22T14:16:11.813Z,1.50
2023-03-22T14:18:43.521Z,1.70
2023-03-22T14:21:18.095Z,2.10
